KFSD/FSD METAR and TAF weather

Enter ICAO airport designator
Station Type Date Time Source
KFSD METAR 2020/09/26 23:56 UTC NOAA

KFSD 262356Z 31012G21KT 10SM SCT050 OVC200 23/13 A2959 RMK AO2 SLP017 T02280128 10250 20206 51031


Station Type Date Time Source
KFSD Decoded METAR 2020/09/26 23:56 UTC NOAA

SIOUX FALLS FOSS FIELD, SD, United States (KFSD) 43-35N 096-45W 434M
Sep 26, 2020 - 07:56 PM EDT / 2020.09.26 2356 UTC
Wind: from the NW (310 degrees) at 14 MPH (12 KT) gusting to 24 MPH (21 KT):0
Visibility: 10 mile(s):0
Sky conditions: overcast
Temperature: 73.0 F (22.8 C)
Dew Point: 55.0 F (12.8 C)
Relative Humidity: 53%
Pressure (altimeter): 29.59 in. Hg (1002 hPa)
Pressure tendency: 0.09 inches (3.1 hPa) higher than three hours ago
ob: KFSD 262356Z 31012G21KT 10SM SCT050 OVC200 23/13 A2959 RMK AO2 SLP017 T02280128 10250 20206 51031
cycle: 0

Station Type Date Time Source
KFSD TAF 2020/09/26 18:22 UTC NOAA

TAF KFSD 261720Z 2618/2718 24012KT P6SM OVC200
FM262000 27010G25KT P6SM BKN200
FM270000 30013KT P6SM SCT150
FM270300 28007KT P6SM SCT150
FM271400 30019G26KT P6SM FEW250

Example: see airport list